Terminal Aerodrome Forecast
Issued by NWS Twin Cities, MN

Home | Current Version | Previous Version | Text Only | Print | Product List | Glossary On
Versions: 1 2 3 4 5 6 7 8 9 10 11 12 13 14 15 16 17 18 19
000
FTUS43 KMPX 181700 RRA
TAFSTC
TAF
KSTC 181744Z 1818/1918 11007KT P6SM SCT060
     FM182300 16010KT P6SM SCT060 SCT200
     FM191100 17012KT P6SM BKN020 OVC050
     FM191600 18014G21KT P6SM BKN030 OVC050=

USA.gov is the U.S. government's official web portal to all federal, state and local government web resources and services.